Affton, MO

12:41 AM CST on November 24, 2014 (GMT -0600)
South County | Change Station
CLOSE
Current Station
Personal Weather Station
Location: Affton, MO
Elevation: 480 ft
Nearby Weather Stations

Elev 480 ft 38.55 °N, 90.32 °W | Updated 11 seconds ago

Rain
Rain
54.6 °F
Feels Like 54.6 °F
N
0.0
Wind Variable Wind from SSE
Gusts 0.0 mph

Today
High -- | Low -- °F
--% Chance of Precip.
Yesterday
High -- | Low -- °F
Precip. -- in
6:52 AM 4:42 PM
Waxing Crescent, 4% visible
Pressure 29.21 in
Visibility 9.0 miles
Clouds Few 1400 ft
Mostly Cloudy 2100 ft
Overcast 2500 ft
Dew Point 55 °F
Humidity 100%
Rainfall 0.00 in
Snow Depth Not available.
UV 0 out of 12
Pollen .40 out of 12
Air Quality Not available.
Flu Activity Not available.
METAR KCPS 240553Z AUTO 18005KT 9SM -RA FEW014 BKN021 OVC025 14/13 A2921 RMK AO2 RAB41 SLP889 P0002 60006 T01390128 10139 20122 401390100 58014 TSNO

More Conditions Fewer Conditions

Pressure 29.21 in
Visibility 9.0 miles
Clouds Few 1400 ft
Mostly Cloudy 2100 ft
Overcast 2500 ft
Dew Point 55 °F
Humidity 100%
Rainfall 0.00 in
Snow Depth Not available.
UV 0 out of 12
Pollen .40 out of 12
Air Quality Not available.
Flu Activity Not available.
METAR KCPS 240553Z AUTO 18005KT 9SM -RA FEW014 BKN021 OVC025 14/13 A2921 RMK AO2 RAB41 SLP889 P0002 60006 T01390128 10139 20122 401390100 58014 TSNO

More Conditions Fewer Conditions

10-Day Weather Forecast

Almanac

Astronomy

Nov. 24, 2014 Rise Set
Actual Time
Civil Twilight
Nautical Twilight
Astronomical Twilight
Moon
Length of Visible Light
Length of Day
Tomorrow will be .
, % of the Moon is Illuminated

Today's Extremes

State Highs State Lows

Community

WunderPhotos

Upload Photos

1,773,294 photos uploaded!

WunderBlogs® & News

Nearby

Air Quality

  Air Quality AQ Index Pollutant
Not available.

Snow Depth

Station Depth Elevation

Earthquake Activity

City Distance Mag. Time & Date
Minimum magnitude displayed is 2.5.

Coastal Water Temperatures

Place Temperature

Nearby Weather Stations